createdAt,value
2016-03-07T00:00:05.763Z,980.39
2016-03-07T00:01:05.750Z,980.36
2016-03-07T00:02:05.752Z,980.3
2016-03-07T00:03:05.741Z,980.33
2016-03-07T00:04:05.743Z,980.3
2016-03-07T00:05:05.746Z,980.32
2016-03-07T00:06:05.732Z,980.31
2016-03-07T00:07:05.735Z,980.25
2016-03-07T00:08:05.738Z,980.27
2016-03-07T00:09:05.725Z,980.24
2016-03-07T00:10:05.728Z,980.26
2016-03-07T00:11:05.731Z,980.27
2016-03-07T00:12:05.718Z,980.31
2016-03-07T00:13:05.705Z,980.27
2016-03-07T00:14:05.707Z,980.27
2016-03-07T00:15:05.709Z,980.3
2016-03-07T00:16:05.698Z,980.23
2016-03-07T00:17:05.700Z,980.27
2016-03-07T00:18:05.686Z,980.26
2016-03-07T00:19:05.690Z,980.33
2016-03-07T00:20:05.676Z,980.3
2016-03-07T00:21:05.679Z,980.29
2016-03-07T00:22:05.698Z,980.3
2016-03-07T00:23:05.669Z,980.3
2016-03-07T00:24:05.671Z,980.31
2016-03-07T00:25:05.675Z,980.29
2016-03-07T00:26:05.661Z,980.33
2016-03-07T00:27:05.663Z,980.36
2016-03-07T00:28:05.666Z,980.35
2016-03-07T00:29:05.654Z,980.35
2016-03-07T00:30:05.641Z,980.34
2016-03-07T00:31:05.644Z,980.31
2016-03-07T00:32:05.646Z,980.33
2016-03-07T00:33:05.649Z,980.38
2016-03-07T00:34:05.636Z,980.39
2016-03-07T00:35:05.624Z,980.37
2016-03-07T00:36:05.626Z,980.36
2016-03-07T00:37:05.628Z,980.33
2016-03-07T00:38:05.616Z,980.34
2016-03-07T00:39:05.634Z,980.35
2016-03-07T00:40:05.605Z,980.33
2016-03-07T00:41:05.608Z,980.33
2016-03-07T00:42:05.610Z,980.26
2016-03-07T00:43:05.598Z,980.3
2016-03-07T00:44:05.601Z,980.29
2016-03-07T00:45:05.587Z,980.25
2016-03-07T00:46:05.589Z,980.28
2016-03-07T00:47:05.593Z,980.27
2016-03-07T00:48:05.580Z,980.28
2016-03-07T00:49:05.583Z,980.28
2016-03-07T00:50:05.570Z,980.26
2016-03-07T00:51:05.572Z,980.28
2016-03-07T00:52:05.575Z,980.3
2016-03-07T00:53:05.562Z,980.28
2016-03-07T00:54:05.564Z,980.29
2016-03-07T00:55:05.567Z,980.32
2016-03-07T00:56:05.555Z,980.26
2016-03-07T00:57:05.557Z,980.29
2016-03-07T00:58:05.544Z,980.29
2016-03-07T00:59:05.547Z,980.26
2016-03-07T01:00:05.534Z,980.27
2016-03-07T01:01:05.536Z,980.28
2016-03-07T01:02:05.539Z,980.27
2016-03-07T01:03:05.527Z,980.28
2016-03-07T01:04:05.529Z,980.31
2016-03-07T01:05:05.532Z,980.29
2016-03-07T01:06:05.519Z,980.26
2016-03-07T01:07:05.521Z,980.27
2016-03-07T01:08:05.510Z,980.28
2016-03-07T01:09:05.512Z,980.28
2016-03-07T01:10:05.514Z,980.27
2016-03-07T01:11:05.501Z,980.2
2016-03-07T01:12:05.488Z,980.22
2016-03-07T01:13:05.490Z,980.21
2016-03-07T01:14:05.493Z,980.19
2016-03-07T01:15:05.496Z,980.19
2016-03-07T01:16:05.483Z,980.17
2016-03-07T01:17:05.471Z,980.15
2016-03-07T01:18:05.473Z,980.13
2016-03-07T01:19:05.476Z,980.11
2016-03-07T01:20:05.462Z,980.09
2016-03-07T01:21:05.465Z,980.15
2016-03-07T01:22:05.468Z,980.09
2016-03-07T01:23:05.455Z,980.12
2016-03-07T01:24:05.473Z,980.05
2016-03-07T01:25:05.445Z,980.06
2016-03-07T01:26:05.448Z,980.06
2016-03-07T01:27:05.436Z,980.07
2016-03-07T01:28:05.438Z,980.09
2016-03-07T01:29:05.424Z,980.01
2016-03-07T01:30:05.428Z,980.06
2016-03-07T01:31:05.414Z,979.95
2016-03-07T01:32:05.416Z,979.99
2016-03-07T01:33:05.419Z,979.99
2016-03-07T01:34:05.407Z,979.92
2016-03-07T01:35:05.409Z,979.92
2016-03-07T01:36:05.413Z,979.93
2016-03-07T01:37:05.399Z,979.91
2016-03-07T01:38:05.401Z,979.91
2016-03-07T01:39:05.389Z,979.89
2016-03-07T01:40:05.407Z,979.86
2016-03-07T01:41:05.379Z,979.85
2016-03-07T01:42:05.381Z,979.9
2016-03-07T01:43:05.368Z,979.87
2016-03-07T01:44:05.387Z,979.86
2016-03-07T01:45:05.374Z,979.89
2016-03-07T01:46:05.361Z,979.9
2016-03-07T01:47:05.364Z,979.87
2016-03-07T01:48:05.351Z,979.88
2016-03-07T01:49:05.353Z,979.91
2016-03-07T01:50:05.356Z,979.87
2016-03-07T01:51:05.342Z,979.84
2016-03-07T01:52:05.362Z,979.8
2016-03-07T01:53:05.333Z,979.8
2016-03-07T01:54:05.336Z,979.82
2016-03-07T01:55:05.323Z,979.82
2016-03-07T01:56:05.325Z,979.8
2016-03-07T01:57:05.312Z,979.83
2016-03-07T01:58:05.315Z,979.84
2016-03-07T01:59:05.317Z,979.87
2016-03-07T02:00:05.304Z,979.9
2016-03-07T02:01:05.308Z,979.91
2016-03-07T02:02:05.310Z,979.95
2016-03-07T02:03:05.297Z,979.95
2016-03-07T02:04:05.285Z,979.92
2016-03-07T02:05:05.287Z,979.96
2016-03-07T02:06:05.290Z,979.98
2016-03-07T02:07:05.277Z,979.98
2016-03-07T02:08:05.279Z,979.96
2016-03-07T02:09:05.266Z,980
2016-03-07T02:10:05.269Z,979.92
2016-03-07T02:11:05.257Z,979.92
2016-03-07T02:12:05.259Z,979.91
2016-03-07T02:13:05.262Z,979.9
2016-03-07T02:14:05.249Z,979.87
2016-03-07T02:15:05.251Z,979.88
2016-03-07T02:16:05.238Z,979.88
2016-03-07T02:17:05.241Z,979.91
2016-03-07T02:18:05.243Z,979.9
2016-03-07T02:19:05.231Z,979.87
2016-03-07T02:20:05.218Z,979.89
2016-03-07T02:21:05.221Z,979.88
2016-03-07T02:22:05.224Z,979.91
2016-03-07T02:23:05.226Z,979.89
2016-03-07T02:24:05.214Z,979.84
2016-03-07T02:25:05.216Z,979.85
2016-03-07T02:26:05.203Z,979.85
2016-03-07T02:27:05.206Z,979.83
2016-03-07T02:28:05.192Z,979.85
2016-03-07T02:29:05.181Z,979.87
2016-03-07T02:30:05.183Z,979.89
2016-03-07T02:31:05.186Z,979.86
2016-03-07T02:32:05.172Z,979.87
2016-03-07T02:33:05.159Z,979.82
2016-03-07T02:34:05.161Z,979.85
2016-03-07T02:35:05.164Z,979.84
2016-03-07T02:36:05.167Z,979.83
2016-03-07T02:37:05.170Z,979.79
2016-03-07T02:38:05.142Z,979.79
2016-03-07T02:39:05.144Z,979.82
2016-03-07T02:40:05.132Z,979.81
2016-03-07T02:41:05.134Z,979.82
2016-03-07T02:42:05.121Z,979.85
2016-03-07T02:43:05.124Z,979.87
2016-03-07T02:44:05.142Z,979.9
2016-03-07T02:45:05.114Z,979.93
2016-03-07T02:46:05.116Z,979.93
2016-03-07T02:47:05.119Z,979.93
2016-03-07T02:48:05.106Z,979.96
2016-03-07T02:49:05.109Z,979.97
2016-03-07T02:50:05.096Z,980.03
2016-03-07T02:51:05.098Z,980.01
2016-03-07T02:52:05.101Z,980.03
2016-03-07T02:53:05.104Z,980.04
2016-03-07T02:54:05.091Z,980.01
2016-03-07T02:55:05.078Z,980.02
2016-03-07T02:56:05.065Z,979.98
2016-03-07T02:57:05.067Z,980.01
2016-03-07T02:58:05.086Z,980.02
2016-03-07T02:59:05.073Z,980.02
2016-03-07T03:00:05.060Z,979.98
2016-03-07T03:01:05.048Z,980.02
2016-03-07T03:02:05.066Z,980.04
2016-03-07T03:03:05.053Z,980.08
2016-03-07T03:04:05.039Z,980.06
2016-03-07T03:05:05.027Z,980.07
2016-03-07T03:06:05.030Z,980.1
2016-03-07T03:07:05.032Z,980.07
2016-03-07T03:08:05.019Z,980.13
2016-03-07T03:09:05.038Z,980.16
2016-03-07T03:10:05.009Z,980.17
2016-03-07T03:11:04.996Z,980.11
2016-03-07T03:12:04.999Z,980.14
2016-03-07T03:13:05.017Z,980.2
2016-03-07T03:14:05.082Z,980.24
2016-03-07T03:15:05.038Z,980.22
2016-03-07T03:16:05.009Z,980.25
2016-03-07T03:17:04.982Z,980.25
2016-03-07T03:18:04.999Z,980.29
2016-03-07T03:19:04.971Z,980.27
2016-03-07T03:20:04.957Z,980.29
2016-03-07T03:21:04.992Z,980.34
